sensor_id;sensor_type;location;lat;lon;timestamp;temperature;humidity
56512;DHT22;42408;53.238;5.686;2023-06-10T00:01:00;15.60;99.90
56512;DHT22;42408;53.238;5.686;2023-06-10T00:03:26;15.60;99.90
56512;DHT22;42408;53.238;5.686;2023-06-10T00:05:52;15.60;99.90
56512;DHT22;42408;53.238;5.686;2023-06-10T00:08:17;15.50;99.90
56512;DHT22;42408;53.238;5.686;2023-06-10T00:10:45;15.50;99.90
56512;DHT22;42408;53.238;5.686;2023-06-10T00:13:10;15.50;99.90
56512;DHT22;42408;53.238;5.686;2023-06-10T00:15:36;15.50;99.90
56512;DHT22;42408;53.238;5.686;2023-06-10T00:18:02;15.50;99.90
56512;DHT22;42408;53.238;5.686;2023-06-10T00:20:29;15.50;99.90
56512;DHT22;42408;53.238;5.686;2023-06-10T00:22:55;15.40;99.90
56512;DHT22;42408;53.238;5.686;2023-06-10T00:25:22;15.40;99.90
56512;DHT22;42408;53.238;5.686;2023-06-10T00:27:47;15.40;99.90
56512;DHT22;42408;53.238;5.686;2023-06-10T00:30:13;15.40;99.90
56512;DHT22;42408;53.238;5.686;2023-06-10T00:32:39;15.30;99.90
56512;DHT22;42408;53.238;5.686;2023-06-10T00:35:05;15.20;99.90
56512;DHT22;42408;53.238;5.686;2023-06-10T00:37:31;15.30;99.90
56512;DHT22;42408;53.238;5.686;2023-06-10T00:39:57;15.20;99.90
56512;DHT22;42408;53.238;5.686;2023-06-10T00:42:22;15.30;99.90
56512;DHT22;42408;53.238;5.686;2023-06-10T00:44:50;15.20;99.90
56512;DHT22;42408;53.238;5.686;2023-06-10T00:47:16;15.20;99.90
56512;DHT22;42408;53.238;5.686;2023-06-10T00:49:41;15.20;99.90
56512;DHT22;42408;53.238;5.686;2023-06-10T00:52:07;15.10;99.90
56512;DHT22;42408;53.238;5.686;2023-06-10T00:54:33;15.10;99.90
56512;DHT22;42408;53.238;5.686;2023-06-10T00:57:00;15.10;99.90
56512;DHT22;42408;53.238;5.686;2023-06-10T00:59:26;15.10;99.90
56512;DHT22;42408;53.238;5.686;2023-06-10T01:01:52;15.00;99.90
56512;DHT22;42408;53.238;5.686;2023-06-10T01:04:17;15.00;99.90
56512;DHT22;42408;53.238;5.686;2023-06-10T01:11:46;14.60;99.90
56512;DHT22;42408;53.238;5.686;2023-06-10T01:14:12;14.90;99.90
56512;DHT22;42408;53.238;5.686;2023-06-10T01:16:39;14.90;99.90
56512;DHT22;42408;53.238;5.686;2023-06-10T01:19:06;14.90;99.90
56512;DHT22;42408;53.238;5.686;2023-06-10T01:21:32;14.90;99.90
56512;DHT22;42408;53.238;5.686;2023-06-10T01:23:58;14.90;99.90
56512;DHT22;42408;53.238;5.686;2023-06-10T01:26:28;14.80;99.90
56512;DHT22;42408;53.238;5.686;2023-06-10T01:28:59;14.80;99.90
56512;DHT22;42408;53.238;5.686;2023-06-10T01:34:07;14.80;99.90
56512;DHT22;42408;53.238;5.686;2023-06-10T01:36:33;14.70;99.90
56512;DHT22;42408;53.238;5.686;2023-06-10T01:39:00;14.80;99.90
56512;DHT22;42408;53.238;5.686;2023-06-10T01:41:27;14.70;99.90
56512;DHT22;42408;53.238;5.686;2023-06-10T01:43:54;14.70;99.90
56512;DHT22;42408;53.238;5.686;2023-06-10T01:46:19;14.70;99.90
56512;DHT22;42408;53.238;5.686;2023-06-10T01:48:46;14.60;99.90
56512;DHT22;42408;53.238;5.686;2023-06-10T01:51:12;14.60;99.90
56512;DHT22;42408;53.238;5.686;2023-06-10T01:53:37;14.60;99.90
56512;DHT22;42408;53.238;5.686;2023-06-10T01:56:03;14.50;99.90
56512;DHT22;42408;53.238;5.686;2023-06-10T01:58:28;14.50;99.90
56512;DHT22;42408;53.238;5.686;2023-06-10T02:00:54;14.50;99.90
56512;DHT22;42408;53.238;5.686;2023-06-10T02:03:19;14.50;99.90
56512;DHT22;42408;53.238;5.686;2023-06-10T02:05:45;14.50;99.90
56512;DHT22;42408;53.238;5.686;2023-06-10T02:08:11;14.50;99.90
56512;DHT22;42408;53.238;5.686;2023-06-10T02:10:36;14.40;99.90
56512;DHT22;42408;53.238;5.686;2023-06-10T02:13:02;14.40;99.90
56512;DHT22;42408;53.238;5.686;2023-06-10T02:15:27;14.30;99.90
56512;DHT22;42408;53.238;5.686;2023-06-10T02:17:53;14.30;99.90
56512;DHT22;42408;53.238;5.686;2023-06-10T02:20:20;14.30;99.90
56512;DHT22;42408;53.238;5.686;2023-06-10T02:22:46;14.30;99.90
56512;DHT22;42408;53.238;5.686;2023-06-10T02:25:11;14.30;99.90
56512;DHT22;42408;53.238;5.686;2023-06-10T02:27:37;14.30;99.90
56512;DHT22;42408;53.238;5.686;2023-06-10T02:30:03;14.30;99.90
56512;DHT22;42408;53.238;5.686;2023-06-10T02:32:28;14.20;99.90
56512;DHT22;42408;53.238;5.686;2023-06-10T02:34:54;14.20;99.90
56512;DHT22;42408;53.238;5.686;2023-06-10T02:37:20;14.20;99.90
56512;DHT22;42408;53.238;5.686;2023-06-10T02:39:46;14.20;99.90
56512;DHT22;42408;53.238;5.686;2023-06-10T02:42:11;14.20;99.90
56512;DHT22;42408;53.238;5.686;2023-06-10T02:44:37;14.10;99.90
56512;DHT22;42408;53.238;5.686;2023-06-10T02:47:03;14.20;99.90
56512;DHT22;42408;53.238;5.686;2023-06-10T02:49:28;14.10;99.90
56512;DHT22;42408;53.238;5.686;2023-06-10T02:51:54;14.10;99.90
56512;DHT22;42408;53.238;5.686;2023-06-10T02:54:22;14.10;99.90
56512;DHT22;42408;53.238;5.686;2023-06-10T02:56:48;14.00;99.90
56512;DHT22;42408;53.238;5.686;2023-06-10T02:59:13;14.00;99.90
56512;DHT22;42408;53.238;5.686;2023-06-10T03:01:39;14.00;99.90
56512;DHT22;42408;53.238;5.686;2023-06-10T03:04:05;13.90;99.90
56512;DHT22;42408;53.238;5.686;2023-06-10T03:06:31;13.90;99.90
56512;DHT22;42408;53.238;5.686;2023-06-10T03:09:02;13.90;99.90
56512;DHT22;42408;53.238;5.686;2023-06-10T03:11:29;13.90;99.90
56512;DHT22;42408;53.238;5.686;2023-06-10T03:13:56;13.90;99.90
56512;DHT22;42408;53.238;5.686;2023-06-10T03:16:21;13.80;99.90
56512;DHT22;42408;53.238;5.686;2023-06-10T03:18:47;13.90;99.90
56512;DHT22;42408;53.238;5.686;2023-06-10T03:21:12;13.80;99.90
56512;DHT22;42408;53.238;5.686;2023-06-10T03:23:38;13.80;99.90
56512;DHT22;42408;53.238;5.686;2023-06-10T03:26:04;13.80;99.90
56512;DHT22;42408;53.238;5.686;2023-06-10T03:28:30;13.70;99.90
56512;DHT22;42408;53.238;5.686;2023-06-10T03:30:56;13.70;99.90
56512;DHT22;42408;53.238;5.686;2023-06-10T03:33:21;13.70;99.90
56512;DHT22;42408;53.238;5.686;2023-06-10T03:35:47;13.60;99.90
56512;DHT22;42408;53.238;5.686;2023-06-10T03:38:12;13.60;99.90
56512;DHT22;42408;53.238;5.686;2023-06-10T03:40:38;13.60;99.90
56512;DHT22;42408;53.238;5.686;2023-06-10T03:43:04;13.60;99.90
56512;DHT22;42408;53.238;5.686;2023-06-10T03:45:29;13.60;99.90
56512;DHT22;42408;53.238;5.686;2023-06-10T03:47:55;13.50;99.90
56512;DHT22;42408;53.238;5.686;2023-06-10T03:50:21;13.50;99.90
56512;DHT22;42408;53.238;5.686;2023-06-10T03:52:48;13.60;99.90
56512;DHT22;42408;53.238;5.686;2023-06-10T03:55:14;13.50;99.90
56512;DHT22;42408;53.238;5.686;2023-06-10T03:57:42;13.60;99.90
56512;DHT22;42408;53.238;5.686;2023-06-10T04:00:07;13.50;99.90
56512;DHT22;42408;53.238;5.686;2023-06-10T04:02:39;13.50;99.90
56512;DHT22;42408;53.238;5.686;2023-06-10T04:05:11;13.50;99.90
56512;DHT22;42408;53.238;5.686;2023-06-10T04:07:37;13.60;99.90
56512;DHT22;42408;53.238;5.686;2023-06-10T04:10:05;13.50;99.90
56512;DHT22;42408;53.238;5.686;2023-06-10T04:12:30;13.50;99.90
56512;DHT22;42408;53.238;5.686;2023-06-10T04:14:56;13.50;99.90
56512;DHT22;42408;53.238;5.686;2023-06-10T04:17:21;13.50;99.90
56512;DHT22;42408;53.238;5.686;2023-06-10T04:19:47;13.50;99.90
56512;DHT22;42408;53.238;5.686;2023-06-10T04:22:12;13.50;99.90
56512;DHT22;42408;53.238;5.686;2023-06-10T04:24:38;13.50;99.90
56512;DHT22;42408;53.238;5.686;2023-06-10T04:27:04;13.50;99.90
56512;DHT22;42408;53.238;5.686;2023-06-10T04:29:29;13.60;99.90
56512;DHT22;42408;53.238;5.686;2023-06-10T04:31:56;13.60;99.90
56512;DHT22;42408;53.238;5.686;2023-06-10T04:34:21;13.60;99.90
56512;DHT22;42408;53.238;5.686;2023-06-10T04:36:47;13.70;99.90
56512;DHT22;42408;53.238;5.686;2023-06-10T04:39:13;13.70;99.90
56512;DHT22;42408;53.238;5.686;2023-06-10T04:41:38;13.70;99.90
56512;DHT22;42408;53.238;5.686;2023-06-10T04:44:04;13.80;99.90
56512;DHT22;42408;53.238;5.686;2023-06-10T04:46:29;13.80;99.90
56512;DHT22;42408;53.238;5.686;2023-06-10T04:48:57;13.80;99.90
56512;DHT22;42408;53.238;5.686;2023-06-10T04:51:22;13.80;99.90
56512;DHT22;42408;53.238;5.686;2023-06-10T04:53:48;13.90;99.90
56512;DHT22;42408;53.238;5.686;2023-06-10T04:56:13;13.90;99.90
56512;DHT22;42408;53.238;5.686;2023-06-10T04:58:40;14.00;99.90
56512;DHT22;42408;53.238;5.686;2023-06-10T05:01:06;13.90;99.90
56512;DHT22;42408;53.238;5.686;2023-06-10T05:03:31;14.00;99.90
56512;DHT22;42408;53.238;5.686;2023-06-10T05:05:56;14.10;99.90
56512;DHT22;42408;53.238;5.686;2023-06-10T05:08:22;14.10;99.90
56512;DHT22;42408;53.238;5.686;2023-06-10T05:10:48;14.20;99.90
56512;DHT22;42408;53.238;5.686;2023-06-10T05:13:13;14.20;99.90
56512;DHT22;42408;53.238;5.686;2023-06-10T05:15:39;14.30;99.90
56512;DHT22;42408;53.238;5.686;2023-06-10T05:18:05;14.30;99.90
56512;DHT22;42408;53.238;5.686;2023-06-10T05:20:31;14.30;99.90
56512;DHT22;42408;53.238;5.686;2023-06-10T05:22:56;14.40;99.90
56512;DHT22;42408;53.238;5.686;2023-06-10T05:25:22;14.40;99.90
56512;DHT22;42408;53.238;5.686;2023-06-10T05:27:47;14.50;99.90
56512;DHT22;42408;53.238;5.686;2023-06-10T05:30:13;14.50;99.90
56512;DHT22;42408;53.238;5.686;2023-06-10T05:32:39;14.60;99.90
56512;DHT22;42408;53.238;5.686;2023-06-10T05:35:04;14.60;99.90
56512;DHT22;42408;53.238;5.686;2023-06-10T05:37:30;14.60;99.90
56512;DHT22;42408;53.238;5.686;2023-06-10T05:39:55;14.70;99.90
56512;DHT22;42408;53.238;5.686;2023-06-10T05:42:21;14.70;99.90
56512;DHT22;42408;53.238;5.686;2023-06-10T05:44:46;14.80;99.90
56512;DHT22;42408;53.238;5.686;2023-06-10T05:47:12;14.80;99.90
56512;DHT22;42408;53.238;5.686;2023-06-10T05:49:37;14.90;99.90
56512;DHT22;42408;53.238;5.686;2023-06-10T05:52:03;14.90;99.90
56512;DHT22;42408;53.238;5.686;2023-06-10T05:54:29;15.00;99.90
56512;DHT22;42408;53.238;5.686;2023-06-10T05:56:54;15.00;99.90
56512;DHT22;42408;53.238;5.686;2023-06-10T05:59:20;15.00;99.90
56512;DHT22;42408;53.238;5.686;2023-06-10T06:01:45;15.10;99.90
56512;DHT22;42408;53.238;5.686;2023-06-10T06:04:11;15.20;99.90
56512;DHT22;42408;53.238;5.686;2023-06-10T06:06:38;15.20;99.90
56512;DHT22;42408;53.238;5.686;2023-06-10T06:09:03;15.30;99.90
56512;DHT22;42408;53.238;5.686;2023-06-10T06:11:29;15.30;99.90
56512;DHT22;42408;53.238;5.686;2023-06-10T06:13:55;15.40;99.90
56512;DHT22;42408;53.238;5.686;2023-06-10T06:16:21;15.50;99.90
56512;DHT22;42408;53.238;5.686;2023-06-10T06:18:47;15.50;99.90
56512;DHT22;42408;53.238;5.686;2023-06-10T06:21:12;15.60;99.90
56512;DHT22;42408;53.238;5.686;2023-06-10T06:23:38;15.60;99.90
56512;DHT22;42408;53.238;5.686;2023-06-10T06:26:03;15.70;99.90
56512;DHT22;42408;53.238;5.686;2023-06-10T06:28:29;15.80;99.90
56512;DHT22;42408;53.238;5.686;2023-06-10T06:30:55;15.90;99.90
56512;DHT22;42408;53.238;5.686;2023-06-10T06:33:20;16.30;99.90
56512;DHT22;42408;53.238;5.686;2023-06-10T06:35:46;17.00;99.90
56512;DHT22;42408;53.238;5.686;2023-06-10T06:38:11;18.30;99.90
56512;DHT22;42408;53.238;5.686;2023-06-10T06:40:37;19.60;99.90
56512;DHT22;42408;53.238;5.686;2023-06-10T06:43:02;20.90;99.90
56512;DHT22;42408;53.238;5.686;2023-06-10T06:45:28;21.80;99.90
56512;DHT22;42408;53.238;5.686;2023-06-10T06:47:53;22.80;99.90
56512;DHT22;42408;53.238;5.686;2023-06-10T06:50:19;23.90;99.90
56512;DHT22;42408;53.238;5.686;2023-06-10T06:52:45;24.40;99.90
56512;DHT22;42408;53.238;5.686;2023-06-10T06:55:10;25.00;99.90
56512;DHT22;42408;53.238;5.686;2023-06-10T06:57:36;25.80;99.90
56512;DHT22;42408;53.238;5.686;2023-06-10T07:00:02;26.50;99.90
56512;DHT22;42408;53.238;5.686;2023-06-10T07:02:27;26.80;99.90
56512;DHT22;42408;53.238;5.686;2023-06-10T07:04:53;27.30;99.90
56512;DHT22;42408;53.238;5.686;2023-06-10T07:07:21;27.90;99.90
56512;DHT22;42408;53.238;5.686;2023-06-10T07:09:46;28.40;99.90
56512;DHT22;42408;53.238;5.686;2023-06-10T07:12:12;28.30;99.00
56512;DHT22;42408;53.238;5.686;2023-06-10T07:14:37;28.90;99.90
56512;DHT22;42408;53.238;5.686;2023-06-10T07:17:03;29.10;98.10
56512;DHT22;42408;53.238;5.686;2023-06-10T07:19:29;29.20;95.60
56512;DHT22;42408;53.238;5.686;2023-06-10T07:21:54;29.30;96.80
56512;DHT22;42408;53.238;5.686;2023-06-10T07:24:19;29.40;95.30
56512;DHT22;42408;53.238;5.686;2023-06-10T07:26:46;29.70;98.00
56512;DHT22;42408;53.238;5.686;2023-06-10T07:29:11;29.90;95.80
56512;DHT22;42408;53.238;5.686;2023-06-10T07:31:38;29.80;94.00
56512;DHT22;42408;53.238;5.686;2023-06-10T07:34:03;30.10;94.10
56512;DHT22;42408;53.238;5.686;2023-06-10T07:36:29;30.30;92.00
56512;DHT22;42408;53.238;5.686;2023-06-10T07:38:54;30.20;89.80
56512;DHT22;42408;53.238;5.686;2023-06-10T07:41:20;30.50;90.80
56512;DHT22;42408;53.238;5.686;2023-06-10T07:46:13;30.80;87.40
56512;DHT22;42408;53.238;5.686;2023-06-10T07:48:39;30.80;90.70
56512;DHT22;42408;53.238;5.686;2023-06-10T07:51:04;31.00;85.00
56512;DHT22;42408;53.238;5.686;2023-06-10T07:53:30;31.00;87.30
56512;DHT22;42408;53.238;5.686;2023-06-10T07:55:55;30.80;84.70
56512;DHT22;42408;53.238;5.686;2023-06-10T07:58:21;30.60;88.00
56512;DHT22;42408;53.238;5.686;2023-06-10T08:00:47;30.50;85.50
56512;DHT22;42408;53.238;5.686;2023-06-10T08:03:13;30.60;88.40
56512;DHT22;42408;53.238;5.686;2023-06-10T08:05:39;30.80;87.30
56512;DHT22;42408;53.238;5.686;2023-06-10T08:08:04;30.80;87.90
56512;DHT22;42408;53.238;5.686;2023-06-10T08:10:30;30.70;82.60
56512;DHT22;42408;53.238;5.686;2023-06-10T08:12:56;30.60;83.00
56512;DHT22;42408;53.238;5.686;2023-06-10T08:15:21;30.60;83.40
56512;DHT22;42408;53.238;5.686;2023-06-10T08:17:47;30.60;87.00
56512;DHT22;42408;53.238;5.686;2023-06-10T08:20:12;30.60;85.20
56512;DHT22;42408;53.238;5.686;2023-06-10T08:22:38;30.30;83.50
56512;DHT22;42408;53.238;5.686;2023-06-10T08:25:03;30.30;83.30
56512;DHT22;42408;53.238;5.686;2023-06-10T08:27:29;30.00;88.90
56512;DHT22;42408;53.238;5.686;2023-06-10T08:29:55;30.10;85.60
56512;DHT22;42408;53.238;5.686;2023-06-10T08:32:20;30.00;86.20
56512;DHT22;42408;53.238;5.686;2023-06-10T08:34:46;29.90;82.80
56512;DHT22;42408;53.238;5.686;2023-06-10T08:37:11;29.90;85.60
56512;DHT22;42408;53.238;5.686;2023-06-10T08:39:37;30.10;86.30
56512;DHT22;42408;53.238;5.686;2023-06-10T08:44:35;30.00;77.20
56512;DHT22;42408;53.238;5.686;2023-06-10T08:47:04;30.00;78.90
56512;DHT22;42408;53.238;5.686;2023-06-10T08:49:31;29.90;80.00
56512;DHT22;42408;53.238;5.686;2023-06-10T08:51:59;29.80;74.80
56512;DHT22;42408;53.238;5.686;2023-06-10T08:54:27;29.90;78.70
56512;DHT22;42408;53.238;5.686;2023-06-10T08:56:54;29.80;82.00
56512;DHT22;42408;53.238;5.686;2023-06-10T08:59:20;29.70;81.60
56512;DHT22;42408;53.238;5.686;2023-06-10T09:01:46;29.60;82.80
56512;DHT22;42408;53.238;5.686;2023-06-10T09:04:12;29.70;88.50
56512;DHT22;42408;53.238;5.686;2023-06-10T09:06:37;29.60;77.90
56512;DHT22;42408;53.238;5.686;2023-06-10T09:09:05;29.60;76.30
56512;DHT22;42408;53.238;5.686;2023-06-10T09:11:31;29.50;79.00
56512;DHT22;42408;53.238;5.686;2023-06-10T09:13:56;29.50;79.40
56512;DHT22;42408;53.238;5.686;2023-06-10T09:16:22;29.40;82.00
56512;DHT22;42408;53.238;5.686;2023-06-10T09:18:48;29.30;79.80
56512;DHT22;42408;53.238;5.686;2023-06-10T09:21:22;29.40;82.20
56512;DHT22;42408;53.238;5.686;2023-06-10T09:23:48;29.40;75.70
56512;DHT22;42408;53.238;5.686;2023-06-10T09:26:14;29.40;76.80
56512;DHT22;42408;53.238;5.686;2023-06-10T09:28:41;29.30;83.00
56512;DHT22;42408;53.238;5.686;2023-06-10T09:31:08;29.30;81.00
56512;DHT22;42408;53.238;5.686;2023-06-10T09:33:38;29.30;78.20
56512;DHT22;42408;53.238;5.686;2023-06-10T09:36:06;29.10;79.90
56512;DHT22;42408;53.238;5.686;2023-06-10T09:38:33;29.10;81.30
56512;DHT22;42408;53.238;5.686;2023-06-10T09:40:59;29.10;79.90
56512;DHT22;42408;53.238;5.686;2023-06-10T09:43:38;29.20;80.10
56512;DHT22;42408;53.238;5.686;2023-06-10T09:46:03;29.30;76.50
56512;DHT22;42408;53.238;5.686;2023-06-10T09:48:29;29.30;84.90
56512;DHT22;42408;53.238;5.686;2023-06-10T09:50:54;29.30;79.70
56512;DHT22;42408;53.238;5.686;2023-06-10T09:53:20;29.20;80.20
56512;DHT22;42408;53.238;5.686;2023-06-10T09:55:46;29.10;81.40
56512;DHT22;42408;53.238;5.686;2023-06-10T09:58:11;29.20;82.30
56512;DHT22;42408;53.238;5.686;2023-06-10T10:00:37;29.20;81.50
56512;DHT22;42408;53.238;5.686;2023-06-10T10:03:02;29.10;80.10
56512;DHT22;42408;53.238;5.686;2023-06-10T10:05:28;29.20;81.90
56512;DHT22;42408;53.238;5.686;2023-06-10T10:07:55;29.10;77.30
56512;DHT22;42408;53.238;5.686;2023-06-10T10:10:22;29.10;81.80
56512;DHT22;42408;53.238;5.686;2023-06-10T10:12:48;29.10;80.30
56512;DHT22;42408;53.238;5.686;2023-06-10T10:15:13;29.20;76.20
56512;DHT22;42408;53.238;5.686;2023-06-10T10:17:40;29.10;79.80
56512;DHT22;42408;53.238;5.686;2023-06-10T10:20:08;29.20;78.70
56512;DHT22;42408;53.238;5.686;2023-06-10T10:22:38;29.20;78.70
56512;DHT22;42408;53.238;5.686;2023-06-10T10:25:11;29.20;76.90
56512;DHT22;42408;53.238;5.686;2023-06-10T10:27:55;29.10;70.70
56512;DHT22;42408;53.238;5.686;2023-06-10T10:30:22;29.10;75.50
56512;DHT22;42408;53.238;5.686;2023-06-10T10:35:23;29.10;70.30
56512;DHT22;42408;53.238;5.686;2023-06-10T10:37:51;29.10;72.70
56512;DHT22;42408;53.238;5.686;2023-06-10T10:40:17;29.00;71.00
56512;DHT22;42408;53.238;5.686;2023-06-10T10:42:44;29.20;69.50
56512;DHT22;42408;53.238;5.686;2023-06-10T10:45:10;29.20;77.20
56512;DHT22;42408;53.238;5.686;2023-06-10T10:47:36;29.20;73.10
56512;DHT22;42408;53.238;5.686;2023-06-10T10:50:03;29.30;74.70
56512;DHT22;42408;53.238;5.686;2023-06-10T10:52:57;29.40;73.30
56512;DHT22;42408;53.238;5.686;2023-06-10T10:55:24;29.40;72.30
56512;DHT22;42408;53.238;5.686;2023-06-10T10:57:53;29.50;70.70
56512;DHT22;42408;53.238;5.686;2023-06-10T11:00:35;29.60;77.70
56512;DHT22;42408;53.238;5.686;2023-06-10T11:03:05;29.40;70.50
56512;DHT22;42408;53.238;5.686;2023-06-10T11:07:57;29.60;82.00
56512;DHT22;42408;53.238;5.686;2023-06-10T11:10:30;29.60;73.30
56512;DHT22;42408;53.238;5.686;2023-06-10T11:12:56;29.70;71.40
56512;DHT22;42408;53.238;5.686;2023-06-10T11:15:23;29.70;71.70
56512;DHT22;42408;53.238;5.686;2023-06-10T11:18:11;29.70;75.00
56512;DHT22;42408;53.238;5.686;2023-06-10T11:28:37;29.80;69.90
56512;DHT22;42408;53.238;5.686;2023-06-10T11:31:03;29.70;73.70
56512;DHT22;42408;53.238;5.686;2023-06-10T11:33:28;29.70;75.60
56512;DHT22;42408;53.238;5.686;2023-06-10T11:35:54;29.60;79.40
56512;DHT22;42408;53.238;5.686;2023-06-10T11:38:20;29.60;85.10
56512;DHT22;42408;53.238;5.686;2023-06-10T11:40:49;29.50;82.60
56512;DHT22;42408;53.238;5.686;2023-06-10T11:43:16;29.40;84.00
56512;DHT22;42408;53.238;5.686;2023-06-10T11:45:42;29.30;86.10
56512;DHT22;42408;53.238;5.686;2023-06-10T11:48:09;29.30;88.70
56512;DHT22;42408;53.238;5.686;2023-06-10T11:50:34;29.10;86.60
56512;DHT22;42408;53.238;5.686;2023-06-10T11:53:00;29.00;89.90
56512;DHT22;42408;53.238;5.686;2023-06-10T11:55:39;29.00;90.40
56512;DHT22;42408;53.238;5.686;2023-06-10T11:58:04;29.10;92.60
56512;DHT22;42408;53.238;5.686;2023-06-10T12:00:30;29.20;91.70
56512;DHT22;42408;53.238;5.686;2023-06-10T12:02:56;29.30;92.10
56512;DHT22;42408;53.238;5.686;2023-06-10T12:05:22;29.10;91.50
56512;DHT22;42408;53.238;5.686;2023-06-10T12:07:48;29.00;92.00
56512;DHT22;42408;53.238;5.686;2023-06-10T12:10:14;28.90;93.50
56512;DHT22;42408;53.238;5.686;2023-06-10T12:12:40;28.60;94.50
56512;DHT22;42408;53.238;5.686;2023-06-10T12:15:06;28.60;96.60
56512;DHT22;42408;53.238;5.686;2023-06-10T12:19:59;28.70;95.90
56512;DHT22;42408;53.238;5.686;2023-06-10T12:22:25;28.50;95.10
56512;DHT22;42408;53.238;5.686;2023-06-10T12:24:58;28.30;95.80
56512;DHT22;42408;53.238;5.686;2023-06-10T12:27:25;28.30;99.90
56512;DHT22;42408;53.238;5.686;2023-06-10T12:29:53;28.30;99.90
56512;DHT22;42408;53.238;5.686;2023-06-10T12:32:19;28.20;98.50
56512;DHT22;42408;53.238;5.686;2023-06-10T12:34:48;28.30;99.90
56512;DHT22;42408;53.238;5.686;2023-06-10T12:37:13;28.30;98.50
56512;DHT22;42408;53.238;5.686;2023-06-10T12:39:39;28.30;99.70
56512;DHT22;42408;53.238;5.686;2023-06-10T12:42:05;28.30;99.90
56512;DHT22;42408;53.238;5.686;2023-06-10T12:44:38;28.10;99.60
56512;DHT22;42408;53.238;5.686;2023-06-10T12:47:07;28.10;99.90
56512;DHT22;42408;53.238;5.686;2023-06-10T12:49:33;28.10;99.90
56512;DHT22;42408;53.238;5.686;2023-06-10T12:52:00;27.80;99.60
56512;DHT22;42408;53.238;5.686;2023-06-10T12:54:26;27.60;99.90
56512;DHT22;42408;53.238;5.686;2023-06-10T12:56:52;27.60;99.90
56512;DHT22;42408;53.238;5.686;2023-06-10T12:59:18;27.40;99.90
56512;DHT22;42408;53.238;5.686;2023-06-10T13:01:49;27.30;99.90
56512;DHT22;42408;53.238;5.686;2023-06-10T13:04:16;27.20;99.90
56512;DHT22;42408;53.238;5.686;2023-06-10T13:06:42;27.30;99.90
56512;DHT22;42408;53.238;5.686;2023-06-10T13:09:08;27.30;99.90
56512;DHT22;42408;53.238;5.686;2023-06-10T13:11:33;27.30;99.90
56512;DHT22;42408;53.238;5.686;2023-06-10T13:13:59;27.50;99.90
56512;DHT22;42408;53.238;5.686;2023-06-10T13:16:25;27.30;99.90
56512;DHT22;42408;53.238;5.686;2023-06-10T13:18:52;27.50;99.90
56512;DHT22;42408;53.238;5.686;2023-06-10T13:21:17;27.50;99.90
56512;DHT22;42408;53.238;5.686;2023-06-10T13:23:44;27.50;99.90
56512;DHT22;42408;53.238;5.686;2023-06-10T13:26:09;27.40;99.90
56512;DHT22;42408;53.238;5.686;2023-06-10T13:28:35;27.30;99.90
56512;DHT22;42408;53.238;5.686;2023-06-10T13:31:00;27.30;99.90
56512;DHT22;42408;53.238;5.686;2023-06-10T13:33:26;27.30;99.90
56512;DHT22;42408;53.238;5.686;2023-06-10T13:35:51;27.20;99.90
56512;DHT22;42408;53.238;5.686;2023-06-10T13:38:17;27.10;99.90
56512;DHT22;42408;53.238;5.686;2023-06-10T13:40:42;27.10;99.90
56512;DHT22;42408;53.238;5.686;2023-06-10T13:43:08;27.10;99.90
56512;DHT22;42408;53.238;5.686;2023-06-10T13:45:35;27.20;99.90
56512;DHT22;42408;53.238;5.686;2023-06-10T13:48:00;27.20;99.90
56512;DHT22;42408;53.238;5.686;2023-06-10T13:50:26;27.10;99.90
56512;DHT22;42408;53.238;5.686;2023-06-10T13:52:52;27.00;99.90
56512;DHT22;42408;53.238;5.686;2023-06-10T13:55:17;27.20;99.90
56512;DHT22;42408;53.238;5.686;2023-06-10T13:57:45;27.30;99.90
56512;DHT22;42408;53.238;5.686;2023-06-10T14:00:11;27.30;99.90
56512;DHT22;42408;53.238;5.686;2023-06-10T14:02:36;27.30;99.90
56512;DHT22;42408;53.238;5.686;2023-06-10T14:05:02;27.20;99.90
56512;DHT22;42408;53.238;5.686;2023-06-10T14:07:28;27.20;99.90
56512;DHT22;42408;53.238;5.686;2023-06-10T14:09:53;27.10;99.90
56512;DHT22;42408;53.238;5.686;2023-06-10T14:12:19;27.00;99.90
56512;DHT22;42408;53.238;5.686;2023-06-10T14:14:44;26.90;99.90
56512;DHT22;42408;53.238;5.686;2023-06-10T14:17:10;26.70;99.90
56512;DHT22;42408;53.238;5.686;2023-06-10T14:19:35;26.50;99.90
56512;DHT22;42408;53.238;5.686;2023-06-10T14:22:01;26.50;99.90
56512;DHT22;42408;53.238;5.686;2023-06-10T14:24:26;26.40;99.90
56512;DHT22;42408;53.238;5.686;2023-06-10T14:26:52;26.40;99.90
56512;DHT22;42408;53.238;5.686;2023-06-10T14:29:17;26.40;99.90
56512;DHT22;42408;53.238;5.686;2023-06-10T14:31:44;26.40;99.90
56512;DHT22;42408;53.238;5.686;2023-06-10T14:34:10;26.50;99.90
56512;DHT22;42408;53.238;5.686;2023-06-10T14:36:35;26.40;99.90
56512;DHT22;42408;53.238;5.686;2023-06-10T14:39:02;26.50;99.90
56512;DHT22;42408;53.238;5.686;2023-06-10T14:41:27;26.50;99.90
56512;DHT22;42408;53.238;5.686;2023-06-10T14:43:53;26.40;99.90
56512;DHT22;42408;53.238;5.686;2023-06-10T14:46:18;26.40;99.90
56512;DHT22;42408;53.238;5.686;2023-06-10T14:48:46;26.50;99.90
56512;DHT22;42408;53.238;5.686;2023-06-10T14:51:11;26.40;99.90
56512;DHT22;42408;53.238;5.686;2023-06-10T14:53:37;26.30;99.90
56512;DHT22;42408;53.238;5.686;2023-06-10T14:56:03;26.20;99.90
56512;DHT22;42408;53.238;5.686;2023-06-10T14:58:28;26.10;99.90
56512;DHT22;42408;53.238;5.686;2023-06-10T15:00:54;26.00;99.90
56512;DHT22;42408;53.238;5.686;2023-06-10T15:03:19;26.10;99.90
56512;DHT22;42408;53.238;5.686;2023-06-10T15:05:45;26.10;99.90
56512;DHT22;42408;53.238;5.686;2023-06-10T15:08:10;26.20;99.90
56512;DHT22;42408;53.238;5.686;2023-06-10T15:10:36;26.20;99.90
56512;DHT22;42408;53.238;5.686;2023-06-10T15:13:02;26.10;99.90
56512;DHT22;42408;53.238;5.686;2023-06-10T15:15:27;26.00;99.90
56512;DHT22;42408;53.238;5.686;2023-06-10T15:17:53;25.90;99.90
56512;DHT22;42408;53.238;5.686;2023-06-10T15:20:19;25.80;99.90
56512;DHT22;42408;53.238;5.686;2023-06-10T15:22:45;25.70;99.90
56512;DHT22;42408;53.238;5.686;2023-06-10T15:25:10;25.60;99.90
56512;DHT22;42408;53.238;5.686;2023-06-10T15:27:36;25.60;99.90
56512;DHT22;42408;53.238;5.686;2023-06-10T15:30:02;25.60;99.90
56512;DHT22;42408;53.238;5.686;2023-06-10T15:32:28;25.70;99.90
56512;DHT22;42408;53.238;5.686;2023-06-10T15:34:53;25.70;99.90
56512;DHT22;42408;53.238;5.686;2023-06-10T15:37:19;25.60;99.90
56512;DHT22;42408;53.238;5.686;2023-06-10T15:39:46;25.60;99.90
56512;DHT22;42408;53.238;5.686;2023-06-10T15:42:12;25.50;99.90
56512;DHT22;42408;53.238;5.686;2023-06-10T15:44:37;25.50;99.90
56512;DHT22;42408;53.238;5.686;2023-06-10T15:47:03;25.40;99.90
56512;DHT22;42408;53.238;5.686;2023-06-10T15:49:29;25.30;99.90
56512;DHT22;42408;53.238;5.686;2023-06-10T15:51:54;25.30;99.90